createdAt,value
2022-08-22T00:00:59.372Z,94430.16
2022-08-22T00:02:49.335Z,94443.97
2022-08-22T00:03:06.628Z,94419.28
2022-08-22T00:03:55.728Z,94421.94
2022-08-22T00:06:50.465Z,94413.84
2022-08-22T00:09:29.911Z,94421.13
2022-08-22T00:12:06.670Z,94416.34
2022-08-22T00:14:51.174Z,94418.88
2022-08-22T00:17:32.953Z,94420.47
2022-08-22T00:20:10.569Z,94418.66
2022-08-22T00:23:03.234Z,94419.47
2022-08-22T00:25:40.357Z,94425.84
2022-08-22T00:28:15.952Z,94415.94
2022-08-22T00:31:03.127Z,94412.91
2022-08-22T00:33:53.092Z,94413.34
2022-08-22T00:36:25.326Z,94410.56
2022-08-22T00:39:04.311Z,94407.38
2022-08-22T00:41:45.237Z,94412.03
2022-08-22T00:44:52.748Z,94411.00
2022-08-22T00:47:44.354Z,94407.81
2022-08-22T00:50:26.541Z,94407.25
2022-08-22T00:52:55.045Z,94403.03
2022-08-22T00:55:48.308Z,94401.06
2022-08-22T00:58:46.190Z,94399.81
2022-08-22T01:01:15.586Z,94393.84
2022-08-22T01:03:46.861Z,94399.69
2022-08-22T01:06:28.824Z,94398.34
2022-08-22T01:09:28.233Z,94394.91
2022-08-22T01:12:11.836Z,94405.59
2022-08-22T01:14:49.072Z,94392.50
2022-08-22T01:17:34.434Z,94400.69
2022-08-22T01:20:16.350Z,94396.25
2022-08-22T01:23:04.766Z,94393.84
2022-08-22T01:26:08.924Z,94395.94
2022-08-22T01:29:10.569Z,94402.19
2022-08-22T01:31:58.885Z,94404.81
2022-08-22T01:34:46.802Z,94402.19
2022-08-22T01:37:41.780Z,94404.81
2022-08-22T01:40:53.527Z,94408.88
2022-08-22T01:44:00.415Z,94407.28
2022-08-22T01:46:54.327Z,94414.13
2022-08-22T01:49:41.180Z,94410.91
2022-08-22T01:52:14.047Z,94417.19
2022-08-22T01:54:54.879Z,94407.13
2022-08-22T01:57:23.651Z,94406.56
2022-08-22T01:59:54.375Z,94402.81
2022-08-22T02:02:41.838Z,94394.59
2022-08-22T02:05:18.734Z,94409.06
2022-08-22T02:08:03.855Z,94405.63
2022-08-22T02:10:57.382Z,94401.63
2022-08-22T02:13:30.536Z,94396.84
2022-08-22T02:16:41.043Z,94400.91
2022-08-22T02:19:16.858Z,94401.34
2022-08-22T02:22:02.565Z,94406.00
2022-08-22T02:24:57.597Z,94398.63
2022-08-22T02:27:49.223Z,94407.69
2022-08-22T02:30:20.880Z,94399.13
2022-08-22T02:33:03.775Z,94405.72
2022-08-22T02:35:33.582Z,94405.94
2022-08-22T02:38:29.896Z,94404.19
2022-08-22T02:41:10.684Z,94408.28
2022-08-22T02:43:49.642Z,94401.09
2022-08-22T02:46:28.544Z,94403.56
2022-08-22T02:49:12.892Z,94403.56
2022-08-22T02:51:58.073Z,94402.38
2022-08-22T02:54:42.030Z,94406.91
2022-08-22T02:57:27.351Z,94417.38
2022-08-22T03:00:27.672Z,94416.56
2022-08-22T03:02:59.748Z,94412.56
2022-08-22T03:05:26.648Z,94409.31
2022-08-22T03:07:59.238Z,94406.13
2022-08-22T03:10:35.320Z,94406.56
2022-08-22T03:13:18.666Z,94407.56
2022-08-22T03:15:56.660Z,94421.66
2022-08-22T03:18:31.506Z,94419.03
2022-08-22T03:21:12.004Z,94417.91
2022-08-22T03:24:23.224Z,94424.28
2022-08-22T03:27:05.908Z,94418.91
2022-08-22T03:29:50.528Z,94414.69
2022-08-22T03:32:21.371Z,94423.13
2022-08-22T03:35:23.608Z,94418.53
2022-08-22T03:37:56.970Z,94416.34
2022-08-22T03:40:34.756Z,94424.72
2022-08-22T03:43:40.237Z,94417.91
2022-08-22T03:46:13.122Z,94424.72
2022-08-22T03:49:06.013Z,94427.78
2022-08-22T03:51:51.672Z,94419.13
2022-08-22T03:54:37.556Z,94419.56
2022-08-22T03:57:06.544Z,94416.72
2022-08-22T03:59:49.074Z,94413.91
2022-08-22T04:02:42.237Z,94417.91
2022-08-22T04:05:28.577Z,94416.88
2022-08-22T04:08:01.424Z,94412.22
2022-08-22T04:10:51.864Z,94416.66
2022-08-22T04:13:40.352Z,94422.69
2022-08-22T04:16:44.398Z,94417.81
2022-08-22T04:19:48.641Z,94412.97
2022-08-22T04:22:37.574Z,94419.41
2022-08-22T04:25:25.691Z,94417.75
2022-08-22T04:28:03.448Z,94424.91
2022-08-22T04:30:40.014Z,94411.41
2022-08-22T04:33:25.013Z,94423.63
2022-08-22T04:35:55.379Z,94426.72
2022-08-22T04:38:31.173Z,94427.69
2022-08-22T04:41:12.607Z,94430.03
2022-08-22T04:43:52.459Z,94423.88
2022-08-22T04:46:36.695Z,94427.88
2022-08-22T04:49:37.179Z,94413.41
2022-08-22T04:52:15.874Z,94427.81
2022-08-22T04:54:56.268Z,94430.00
2022-08-22T04:57:32.824Z,94432.75
2022-08-22T05:00:08.549Z,94429.47
2022-08-22T05:02:39.042Z,94424.44
2022-08-22T05:05:13.817Z,94437.25
2022-08-22T05:07:56.505Z,94431.31
2022-08-22T05:10:35.765Z,94422.56
2022-08-22T05:13:19.762Z,94445.66
2022-08-22T05:15:50.542Z,94446.81
2022-08-22T05:18:29.545Z,94449.44
2022-08-22T05:21:00.753Z,94452.41
2022-08-22T05:23:33.822Z,94461.66
2022-08-22T05:26:04.307Z,94452.56
2022-08-22T05:28:45.197Z,94459.19
2022-08-22T05:31:34.570Z,94457.56
2022-08-22T05:34:05.921Z,94467.03
2022-08-22T05:36:39.558Z,94459.31
2022-08-22T05:39:14.733Z,94467.72
2022-08-22T05:41:42.527Z,94465.03
2022-08-22T05:44:32.251Z,94448.28
2022-08-22T05:47:04.652Z,94463.59
2022-08-22T05:50:03.694Z,94469.09
2022-08-22T05:52:49.013Z,94476.97
2022-08-22T05:55:30.465Z,94480.16
2022-08-22T05:58:06.241Z,94488.97
2022-08-22T06:00:40.066Z,94496.94
2022-08-22T06:03:29.752Z,94498.09
2022-08-22T06:06:06.057Z,94491.38
2022-08-22T06:08:40.263Z,94495.50
2022-08-22T06:11:15.862Z,94491.19
2022-08-22T06:13:54.122Z,94489.25
2022-08-22T06:16:31.040Z,94485.03
2022-08-22T06:18:59.394Z,94491.88
2022-08-22T06:21:39.607Z,94490.63
2022-08-22T06:24:13.298Z,94495.75
2022-08-22T06:26:48.894Z,94497.13
2022-08-22T06:29:42.906Z,94493.13
2022-08-22T06:32:59.132Z,94494.03
2022-08-22T06:36:07.966Z,94499.06
2022-08-22T06:39:01.920Z,94498.25
2022-08-22T06:41:32.847Z,94494.03
2022-08-22T06:44:02.193Z,94497.81
2022-08-22T06:46:32.041Z,94484.44
2022-08-22T06:49:01.117Z,94490.13
2022-08-22T06:51:29.799Z,94489.44
2022-08-22T06:54:03.837Z,94490.09
2022-08-22T06:56:39.326Z,94493.06
2022-08-22T06:59:12.838Z,94499.00
2022-08-22T07:02:26.121Z,94496.47
2022-08-22T07:04:53.208Z,94497.16
2022-08-22T07:07:24.032Z,94491.00
2022-08-22T07:09:55.596Z,94488.25
2022-08-22T07:12:29.419Z,94496.47
2022-08-22T07:15:10.234Z,94507.78
2022-08-22T07:17:46.809Z,94494.88
2022-08-22T07:20:33.888Z,94501.97
2022-08-22T07:23:10.476Z,94508.56
2022-08-22T07:26:11.075Z,94510.53
2022-08-22T07:28:51.373Z,94510.34
2022-08-22T07:31:37.643Z,94510.16
2022-08-22T07:34:26.313Z,94508.59
2022-08-22T07:37:05.914Z,94512.28
2022-08-22T07:39:46.380Z,94504.28
2022-08-22T07:42:18.494Z,94505.47
2022-08-22T07:45:13.737Z,94506.69
2022-08-22T07:47:52.397Z,94499.72
2022-08-22T07:50:31.789Z,94504.03
2022-08-22T07:53:10.573Z,94509.69
2022-08-22T07:55:42.172Z,94504.97
2022-08-22T07:58:18.524Z,94499.97
2022-08-22T08:00:47.049Z,94496.84
2022-08-22T08:03:14.571Z,94498.09
2022-08-22T08:05:43.812Z,94500.97
2022-08-22T08:08:42.067Z,94494.56
2022-08-22T08:11:12.123Z,94496.72
2022-08-22T08:13:43.934Z,94495.03
2022-08-22T08:16:20.281Z,94492.28
2022-08-22T08:18:49.582Z,94497.56
2022-08-22T08:21:32.079Z,94491.41
2022-08-22T08:24:01.744Z,94499.53
2022-08-22T08:26:34.572Z,94490.44
2022-08-22T08:29:03.353Z,94496.53
2022-08-22T08:31:43.157Z,94492.81
2022-08-22T08:34:18.793Z,94492.13
2022-08-22T08:37:00.521Z,94490.63
2022-08-22T08:39:37.082Z,94481.94
2022-08-22T08:42:17.131Z,94489.34
2022-08-22T08:44:59.036Z,94490.03
2022-08-22T08:47:35.931Z,94491.50
2022-08-22T08:50:40.665Z,94481.19
2022-08-22T08:53:38.919Z,94485.13
2022-08-22T08:56:21.809Z,94483.16
2022-08-22T08:59:03.621Z,94472.19
2022-08-22T09:01:55.701Z,94468.19
2022-08-22T09:04:59.030Z,94472.16
2022-08-22T09:07:41.443Z,94466.34
2022-08-22T09:10:33.041Z,94475.06
2022-08-22T09:13:26.589Z,94469.16
2022-08-22T09:16:17.853Z,94468.34
2022-08-22T09:19:18.730Z,94472.13
2022-08-22T09:22:49.845Z,94478.75
2022-08-22T09:25:39.275Z,94476.91
2022-08-22T09:31:48.114Z,94470.03
2022-08-22T09:34:32.765Z,94471.53
2022-08-22T09:37:21.239Z,94474.19
2022-08-22T09:40:15.633Z,94471.03
2022-08-22T09:40:17.032Z,94466.88
2022-08-22T09:43:02.892Z,94463.78
2022-08-22T09:45:54.296Z,94464.41
2022-08-22T09:48:37.735Z,94461.31
2022-08-22T09:51:31.647Z,94458.44
2022-08-22T09:54:19.649Z,94455.78
2022-08-22T09:57:19.050Z,94450.19
2022-08-22T10:00:13.734Z,94454.44
2022-08-22T10:02:49.657Z,94449.16
2022-08-22T10:05:52.522Z,94443.09
2022-08-22T10:08:30.678Z,94436.16
2022-08-22T10:11:19.598Z,94426.63
2022-08-22T10:13:57.245Z,94439.31
2022-08-22T10:16:39.666Z,94429.69
2022-08-22T10:19:29.002Z,94434.13
2022-08-22T10:22:31.053Z,94430.47
2022-08-22T10:25:24.547Z,94420.53
2022-08-22T10:28:16.035Z,94422.38
2022-08-22T10:31:12.787Z,94415.50
2022-08-22T10:33:53.321Z,94411.00
2022-08-22T10:36:44.888Z,94407.00
2022-08-22T10:39:22.310Z,94411.19
2022-08-22T10:42:12.321Z,94401.31
2022-08-22T10:45:03.731Z,94389.63
2022-08-22T10:47:41.059Z,94388.50
2022-08-22T10:50:31.144Z,94392.19
2022-08-22T10:53:35.635Z,94383.94
2022-08-22T10:56:21.325Z,94394.78
2022-08-22T10:59:13.899Z,94388.63
2022-08-22T11:02:08.800Z,94391.50
2022-08-22T11:04:38.847Z,94383.06
2022-08-22T11:07:21.398Z,94377.25
2022-08-22T11:10:02.858Z,94384.41
2022-08-22T11:13:14.634Z,94393.00
2022-08-22T11:16:11.604Z,94377.25
2022-08-22T11:19:01.801Z,94376.47
2022-08-22T11:21:36.129Z,94374.69
2022-08-22T11:24:17.156Z,94378.53
2022-08-22T11:27:04.100Z,94370.16
2022-08-22T11:29:34.319Z,94371.56
2022-08-22T11:32:39.892Z,94373.59
2022-08-22T11:35:18.933Z,94370.72
2022-08-22T11:38:03.354Z,94382.03
2022-08-22T11:40:41.523Z,94377.03
2022-08-22T11:43:28.985Z,94371.81
2022-08-22T11:46:06.331Z,94369.56
2022-08-22T11:48:48.575Z,94371.41
2022-08-22T11:51:34.322Z,94372.56
2022-08-22T11:54:14.145Z,94362.03
2022-08-22T11:56:54.322Z,94366.81
2022-08-22T11:59:28.561Z,94364.19
2022-08-22T12:02:04.240Z,94366.03
2022-08-22T12:04:38.278Z,94366.81
2022-08-22T12:07:29.995Z,94367.34
2022-08-22T12:10:25.857Z,94371.63
2022-08-22T12:13:08.811Z,94371.69
2022-08-22T12:16:10.892Z,94365.41
2022-08-22T12:19:11.691Z,94358.84
2022-08-22T12:21:47.516Z,94359.38
2022-08-22T12:24:47.923Z,94347.63
2022-08-22T12:27:29.145Z,94338.28
2022-08-22T12:30:30.175Z,94349.84
2022-08-22T12:33:04.042Z,94339.69
2022-08-22T12:35:54.174Z,94332.00
2022-08-22T12:38:51.738Z,94324.91
2022-08-22T12:41:35.029Z,94322.84
2022-08-22T12:44:23.630Z,94316.53
2022-08-22T12:47:02.453Z,94314.94
2022-08-22T12:49:57.994Z,94318.13
2022-08-22T12:52:59.111Z,94317.63
2022-08-22T12:55:48.955Z,94316.16
2022-08-22T12:58:38.710Z,94313.00
2022-08-22T13:01:08.433Z,94308.50
2022-08-22T13:03:43.139Z,94301.34
2022-08-22T13:06:37.978Z,94296.06
2022-08-22T13:09:34.071Z,94309.84
2022-08-22T13:12:33.231Z,94336.34
2022-08-22T13:15:25.880Z,94340.59
2022-08-22T13:17:53.976Z,94335.84
2022-08-22T13:20:43.651Z,94336.91
2022-08-22T13:23:32.334Z,94329.19
2022-08-22T13:26:16.460Z,94333.69
2022-08-22T13:29:25.769Z,94346.69
2022-08-22T13:32:02.015Z,94350.13
2022-08-22T13:34:45.840Z,94351.16
2022-08-22T13:37:17.997Z,94341.13
2022-08-22T13:39:56.025Z,94354.88
2022-08-22T13:42:29.884Z,94373.38
2022-08-22T13:45:03.103Z,94389.09
2022-08-22T13:47:39.315Z,94392.16
2022-08-22T13:50:14.912Z,94396.47
2022-08-22T13:52:52.453Z,94412.75
2022-08-22T13:55:43.464Z,94409.25
2022-08-22T13:58:35.139Z,94425.72
2022-08-22T14:01:28.510Z,94428.19
2022-08-22T14:03:59.441Z,94436.03
2022-08-22T14:06:56.466Z,94455.91
2022-08-22T14:09:45.267Z,94470.50
2022-08-22T14:12:51.165Z,94462.53
2022-08-22T14:15:45.520Z,94447.09
2022-08-22T14:18:30.445Z,94443.53
2022-08-22T14:21:39.993Z,94450.84
2022-08-22T14:24:27.288Z,94439.94
2022-08-22T14:27:06.570Z,94452.38
2022-08-22T14:29:52.646Z,94456.16
2022-08-22T14:32:22.789Z,94448.94
2022-08-22T14:35:05.134Z,94447.47
2022-08-22T14:37:43.828Z,94454.44
2022-08-22T14:40:13.579Z,94452.91
2022-08-22T14:42:44.225Z,94443.53
2022-08-22T14:45:21.960Z,94441.03
2022-08-22T14:48:29.711Z,94431.44
2022-08-22T14:51:08.591Z,94420.47
2022-08-22T14:53:38.614Z,94416.94
2022-08-22T14:56:05.733Z,94425.00
2022-08-22T14:58:47.951Z,94420.31
2022-08-22T15:01:19.077Z,94401.78
2022-08-22T15:04:03.855Z,94416.28
2022-08-22T15:06:36.373Z,94406.09
2022-08-22T15:09:24.891Z,94411.81
2022-08-22T15:11:53.438Z,94411.97
2022-08-22T15:14:45.708Z,94400.59
2022-08-22T15:17:33.833Z,94405.69
2022-08-22T15:20:28.655Z,94400.94
2022-08-22T15:23:00.773Z,94412.53
2022-08-22T15:25:35.294Z,94416.53
2022-08-22T15:28:20.383Z,94417.91
2022-08-22T15:30:49.950Z,94415.59
2022-08-22T15:33:34.206Z,94421.44
2022-08-22T15:36:31.563Z,94418.56
2022-08-22T15:39:27.898Z,94414.09
2022-08-22T15:41:56.048Z,94419.81
2022-08-22T15:44:33.659Z,94418.47
2022-08-22T15:47:24.268Z,94426.22
2022-08-22T15:50:02.335Z,94430.44
2022-08-22T15:52:59.806Z,94436.97
2022-08-22T15:55:34.429Z,94443.25
2022-08-22T15:58:06.881Z,94449.16
2022-08-22T16:00:45.217Z,94461.81
2022-08-22T16:03:33.270Z,94464.22
2022-08-22T16:06:08.029Z,94466.63
2022-08-22T16:08:51.513Z,94475.53
2022-08-22T16:11:35.821Z,94469.94
2022-08-22T16:14:23.489Z,94481.25
2022-08-22T16:16:51.335Z,94476.00
2022-08-22T16:19:24.900Z,94471.72
2022-08-22T16:21:51.746Z,94460.53
2022-08-22T16:24:18.680Z,94464.75
2022-08-22T16:26:46.484Z,94461.31
2022-08-22T16:29:18.031Z,94471.50
2022-08-22T16:31:48.064Z,94461.91
2022-08-22T16:34:18.105Z,94473.97
2022-08-22T16:36:45.127Z,94466.44
2022-08-22T16:39:22.511Z,94466.19
2022-08-22T16:42:11.818Z,94460.25
2022-08-22T16:44:49.863Z,94467.66
2022-08-22T16:47:41.624Z,94458.25
2022-08-22T16:50:22.877Z,94460.41
2022-08-22T16:52:56.813Z,94458.25
2022-08-22T16:55:29.775Z,94454.53
2022-08-22T16:58:11.898Z,94457.16
2022-08-22T17:01:07.209Z,94449.91
2022-08-22T17:04:11.819Z,94443.72
2022-08-22T17:06:56.328Z,94448.03
2022-08-22T17:09:23.168Z,94444.75
2022-08-22T17:12:27.077Z,94446.72
2022-08-22T17:15:18.691Z,94461.00
2022-08-22T17:18:19.472Z,94458.13
2022-08-22T17:21:26.057Z,94450.00
2022-08-22T17:24:33.549Z,94443.38
2022-08-22T17:27:11.765Z,94447.84
2022-08-22T17:29:39.345Z,94449.34
2022-08-22T17:32:33.703Z,94458.88
2022-08-22T17:35:42.469Z,94460.38
2022-08-22T17:38:41.025Z,94462.91
2022-08-22T17:41:43.748Z,94469.16
2022-08-22T17:44:22.878Z,94467.31
2022-08-22T17:47:01.684Z,94475.22
2022-08-22T17:49:46.826Z,94471.47
2022-08-22T17:52:19.220Z,94474.22
2022-08-22T17:55:05.401Z,94482.34
2022-08-22T17:57:49.278Z,94469.09
2022-08-22T18:00:28.623Z,94472.28
2022-08-22T18:03:05.261Z,94476.88
2022-08-22T18:05:38.362Z,94464.22
2022-08-22T18:08:38.125Z,94483.28
2022-08-22T18:11:43.458Z,94492.53
2022-08-22T18:14:23.151Z,94495.28
2022-08-22T18:16:53.038Z,94502.25
2022-08-22T18:19:54.198Z,94502.72
2022-08-22T18:22:36.098Z,94494.72
2022-08-22T18:25:08.809Z,94493.59
2022-08-22T18:27:44.554Z,94492.31
2022-08-22T18:30:11.483Z,94498.38
2022-08-22T18:32:53.919Z,94502.94
2022-08-22T18:35:42.566Z,94509.13
2022-08-22T18:38:26.773Z,94504.22
2022-08-22T18:41:12.225Z,94509.34
2022-08-22T18:43:48.394Z,94515.84
2022-08-22T18:46:41.443Z,94513.69
2022-08-22T18:49:15.650Z,94518.13
2022-08-22T18:51:43.439Z,94521.69
2022-08-22T18:54:13.884Z,94527.38
2022-08-22T18:56:54.804Z,94526.34
2022-08-22T18:59:40.210Z,94539.34
2022-08-22T19:02:22.491Z,94539.22
2022-08-22T19:05:11.010Z,94545.72
2022-08-22T19:08:00.132Z,94545.59
2022-08-22T19:10:45.760Z,94551.28
2022-08-22T19:13:12.610Z,94536.78
2022-08-22T19:15:55.494Z,94546.91
2022-08-22T19:18:44.094Z,94545.06
2022-08-22T19:21:48.880Z,94538.31
2022-08-22T19:24:27.798Z,94543.19
2022-08-22T19:27:19.556Z,94550.50
2022-08-22T19:29:46.738Z,94560.19
2022-08-22T19:32:44.902Z,94556.66
2022-08-22T19:35:37.472Z,94556.72
2022-08-22T19:38:07.816Z,94564.13
2022-08-22T19:40:58.180Z,94558.16
2022-08-22T19:43:38.274Z,94564.56
2022-08-22T19:46:09.524Z,94550.44
2022-08-22T19:48:56.755Z,94553.63
2022-08-22T19:51:27.735Z,94548.38
2022-08-22T19:54:05.526Z,94558.88
2022-08-22T19:56:57.218Z,94553.16
2022-08-22T19:59:24.265Z,94558.75
2022-08-22T20:01:51.118Z,94559.56
2022-08-22T20:04:47.269Z,94557.38
2022-08-22T20:07:37.413Z,94561.81
2022-08-22T20:10:25.044Z,94560.22
2022-08-22T20:13:09.159Z,94559.09
2022-08-22T20:16:13.582Z,94549.97
2022-08-22T20:19:05.089Z,94554.06
2022-08-22T20:21:41.930Z,94542.41
2022-08-22T20:24:14.796Z,94544.97
2022-08-22T20:27:03.647Z,94539.13
2022-08-22T20:29:35.608Z,94554.19
2022-08-22T20:32:04.493Z,94557.28
2022-08-22T20:34:36.700Z,94550.28
2022-08-22T20:37:27.278Z,94534.41
2022-08-22T20:40:55.976Z,94545.25
2022-08-22T20:43:42.340Z,94549.13
2022-08-22T20:46:47.868Z,94548.41
2022-08-22T20:49:31.794Z,94547.47
2022-08-22T20:52:07.568Z,94554.53
2022-08-22T20:54:38.286Z,94561.81
2022-08-22T20:57:17.206Z,94562.41
2022-08-22T20:59:58.438Z,94570.25
2022-08-22T21:02:35.637Z,94567.63
2022-08-22T21:05:11.837Z,94571.84
2022-08-22T21:07:43.564Z,94576.66
2022-08-22T21:10:44.826Z,94570.84
2022-08-22T21:13:23.728Z,94564.81
2022-08-22T21:15:52.293Z,94564.00
2022-08-22T21:18:27.357Z,94563.19
2022-08-22T21:20:55.331Z,94560.00
2022-08-22T21:23:22.352Z,94562.41
2022-08-22T21:25:52.826Z,94539.31
2022-08-22T21:28:55.453Z,94555.56
2022-08-22T21:31:25.226Z,94550.09
2022-08-22T21:33:55.325Z,94551.47
2022-08-22T21:36:27.499Z,94566.03
2022-08-22T21:38:56.903Z,94564.44
2022-08-22T21:41:26.680Z,94560.22
2022-08-22T21:43:54.244Z,94556.69
2022-08-22T21:46:27.222Z,94562.75
2022-08-22T21:49:05.416Z,94542.28
2022-08-22T21:51:46.407Z,94552.06
2022-08-22T21:54:29.450Z,94545.06
2022-08-22T21:56:59.210Z,94551.91
2022-08-22T21:59:52.252Z,94545.84
2022-08-22T22:02:28.066Z,94544.47
2022-08-22T22:04:56.121Z,94546.50
2022-08-22T22:07:24.523Z,94539.66
2022-08-22T22:09:54.650Z,94532.81
2022-08-22T22:12:23.322Z,94524.81
2022-08-22T22:14:51.091Z,94525.41
2022-08-22T22:17:19.174Z,94521.66
2022-08-22T22:19:47.130Z,94528.34
2022-08-22T22:22:14.339Z,94526.78
2022-08-22T22:24:41.284Z,94535.97
2022-08-22T22:27:11.699Z,94517.06
2022-08-22T22:29:41.418Z,94513.22
2022-08-22T22:32:09.639Z,94512.03
2022-08-22T22:34:37.260Z,94512.41
2022-08-22T22:37:04.313Z,94503.16
2022-08-22T22:39:31.287Z,94501.34
2022-08-22T22:41:58.298Z,94488.31
2022-08-22T22:44:25.788Z,94497.28
2022-08-22T22:46:57.651Z,94486.81
2022-08-22T22:49:24.968Z,94492.03
2022-08-22T22:51:51.980Z,94492.38
2022-08-22T22:54:19.002Z,94487.59
2022-08-22T22:56:54.452Z,94489.66
2022-08-22T22:59:24.817Z,94498.94
2022-08-22T23:02:20.837Z,94492.53
2022-08-22T23:04:53.094Z,94499.53
2022-08-22T23:07:21.226Z,94498.94
2022-08-22T23:09:48.242Z,94498.56
2022-08-22T23:12:15.525Z,94511.88
2022-08-22T23:14:42.621Z,94508.69
2022-08-22T23:17:09.910Z,94499.22
2022-08-22T23:19:39.034Z,94491.84
2022-08-22T23:22:07.428Z,94514.34
2022-08-22T23:24:36.170Z,94519.03
2022-08-22T23:27:03.343Z,94513.31
2022-08-22T23:29:30.571Z,94500.91
2022-08-22T23:32:04.912Z,94515.94
2022-08-22T23:34:35.059Z,94517.19
2022-08-22T23:37:05.866Z,94509.69
2022-08-22T23:39:35.856Z,94516.09
2022-08-22T23:42:02.882Z,94518.50
2022-08-22T23:44:32.317Z,94521.09
2022-08-22T23:47:00.061Z,94529.75
2022-08-22T23:49:28.602Z,94527.56
2022-08-22T23:51:56.957Z,94525.75
2022-08-22T23:54:24.443Z,94528.16
2022-08-22T23:57:02.378Z,94527.13
2022-08-22T23:59:33.520Z,94535.59
